sensor_id;sensor_type;location;lat;lon;timestamp;pressure;altitude;pressure_sealevel;temperature;humidity
41654;BME280;68687;52.030;7.110;2023-07-08T00:00:46;101124.53;;;19.34;54.12
41654;BME280;68687;52.030;7.110;2023-07-08T00:03:13;101121.78;;;19.23;54.40
41654;BME280;68687;52.030;7.110;2023-07-08T00:05:46;101114.94;;;19.32;54.11
41654;BME280;68687;52.030;7.110;2023-07-08T00:08:19;101113.84;;;19.21;54.73
41654;BME280;68687;52.030;7.110;2023-07-08T00:10:46;101111.56;;;19.18;54.96
41654;BME280;68687;52.030;7.110;2023-07-08T00:13:11;101111.56;;;19.18;54.89
41654;BME280;68687;52.030;7.110;2023-07-08T00:15:39;101106.66;;;19.08;55.48
41654;BME280;68687;52.030;7.110;2023-07-08T00:18:11;101104.31;;;18.94;56.31
41654;BME280;68687;52.030;7.110;2023-07-08T00:20:42;101098.28;;;18.73;57.11
41654;BME280;68687;52.030;7.110;2023-07-08T00:23:09;101104.31;;;18.75;57.39
41654;BME280;68687;52.030;7.110;2023-07-08T00:25:34;101095.63;;;18.67;57.12
41654;BME280;68687;52.030;7.110;2023-07-08T00:28:00;101101.00;;;18.73;56.95
41654;BME280;68687;52.030;7.110;2023-07-08T00:30:26;101105.00;;;18.71;56.92
41654;BME280;68687;52.030;7.110;2023-07-08T00:32:53;101100.00;;;18.68;57.50
41654;BME280;68687;52.030;7.110;2023-07-08T00:35:34;101099.34;;;18.72;57.00
41654;BME280;68687;52.030;7.110;2023-07-08T00:41:11;101094.44;;;18.56;57.69
41654;BME280;68687;52.030;7.110;2023-07-08T00:43:39;101091.94;;;18.54;57.75
41654;BME280;68687;52.030;7.110;2023-07-08T00:46:19;101083.41;;;18.51;57.67
41654;BME280;68687;52.030;7.110;2023-07-08T00:48:49;101087.03;;;18.45;58.01
41654;BME280;68687;52.030;7.110;2023-07-08T00:51:18;101083.88;;;18.48;57.73
41654;BME280;68687;52.030;7.110;2023-07-08T00:53:44;101072.16;;;18.47;57.59
41654;BME280;68687;52.030;7.110;2023-07-08T00:56:10;101082.03;;;18.42;58.04
41654;BME280;68687;52.030;7.110;2023-07-08T00:58:51;101080.03;;;18.31;58.36
41654;BME280;68687;52.030;7.110;2023-07-08T01:01:18;101072.94;;;18.30;58.03
41654;BME280;68687;52.030;7.110;2023-07-08T01:03:56;101079.56;;;18.40;58.09
41654;BME280;68687;52.030;7.110;2023-07-08T01:06:26;101072.50;;;18.33;58.10
41654;BME280;68687;52.030;7.110;2023-07-08T01:08:58;101064.25;;;18.21;58.56
41654;BME280;68687;52.030;7.110;2023-07-08T01:11:34;101055.44;;;18.26;58.51
41654;BME280;68687;52.030;7.110;2023-07-08T01:14:03;101059.81;;;18.27;58.77
41654;BME280;68687;52.030;7.110;2023-07-08T01:16:32;101055.44;;;18.26;58.60
41654;BME280;68687;52.030;7.110;2023-07-08T01:19:02;101058.16;;;18.26;58.76
41654;BME280;68687;52.030;7.110;2023-07-08T01:21:37;101053.38;;;18.21;58.93
41654;BME280;68687;52.030;7.110;2023-07-08T01:24:09;101047.28;;;18.26;58.85
41654;BME280;68687;52.030;7.110;2023-07-08T01:26:43;101060.16;;;18.12;59.28
41654;BME280;68687;52.030;7.110;2023-07-08T01:29:10;101049.63;;;18.22;58.92
41654;BME280;68687;52.030;7.110;2023-07-08T01:31:36;101045.09;;;18.16;59.12
41654;BME280;68687;52.030;7.110;2023-07-08T01:34:01;101049.47;;;18.17;58.84
41654;BME280;68687;52.030;7.110;2023-07-08T01:36:30;101047.06;;;18.02;59.55
41654;BME280;68687;52.030;7.110;2023-07-08T01:38:56;101047.22;;;18.07;59.62
41654;BME280;68687;52.030;7.110;2023-07-08T01:41:21;101043.53;;;18.02;59.73
41654;BME280;68687;52.030;7.110;2023-07-08T01:47:16;101048.97;;;18.02;59.45
41654;BME280;68687;52.030;7.110;2023-07-08T01:49:47;101039.97;;;18.01;59.46
41654;BME280;68687;52.030;7.110;2023-07-08T01:52:16;101036.56;;;17.87;59.77
41654;BME280;68687;52.030;7.110;2023-07-08T01:54:56;101036.03;;;17.97;59.56
41654;BME280;68687;52.030;7.110;2023-07-08T01:57:24;101034.50;;;17.83;60.42
41654;BME280;68687;52.030;7.110;2023-07-08T01:59:50;101029.41;;;17.93;59.68
41654;BME280;68687;52.030;7.110;2023-07-08T02:02:15;101027.13;;;17.90;60.25
41654;BME280;68687;52.030;7.110;2023-07-08T02:04:43;101027.50;;;17.94;59.97
41654;BME280;68687;52.030;7.110;2023-07-08T02:07:09;101024.63;;;17.88;60.27
41654;BME280;68687;52.030;7.110;2023-07-08T02:09:40;101029.00;;;17.89;59.89
41654;BME280;68687;52.030;7.110;2023-07-08T02:12:05;101024.06;;;17.80;60.55
41654;BME280;68687;52.030;7.110;2023-07-08T02:14:34;101016.75;;;17.80;60.37
41654;BME280;68687;52.030;7.110;2023-07-08T02:16:59;101019.06;;;17.77;60.54
41654;BME280;68687;52.030;7.110;2023-07-08T02:19:24;101010.53;;;17.73;60.42
41654;BME280;68687;52.030;7.110;2023-07-08T02:21:50;101000.97;;;17.71;60.28
41654;BME280;68687;52.030;7.110;2023-07-08T02:24:17;100998.06;;;17.66;60.97
41654;BME280;68687;52.030;7.110;2023-07-08T02:26:43;101003.22;;;17.74;60.66
41654;BME280;68687;52.030;7.110;2023-07-08T02:29:08;100999.09;;;17.65;60.69
41654;BME280;68687;52.030;7.110;2023-07-08T02:31:33;101002.41;;;17.73;60.67
41654;BME280;68687;52.030;7.110;2023-07-08T02:33:59;101006.56;;;17.76;60.37
41654;BME280;68687;52.030;7.110;2023-07-08T02:36:25;101001.22;;;17.63;61.09
41654;BME280;68687;52.030;7.110;2023-07-08T02:38:51;100989.59;;;17.55;61.03
41654;BME280;68687;52.030;7.110;2023-07-08T02:41:16;100997.81;;;17.74;60.45
41654;BME280;68687;52.030;7.110;2023-07-08T02:43:44;100997.81;;;17.74;60.16
41654;BME280;68687;52.030;7.110;2023-07-08T02:46:10;100992.53;;;17.79;59.97
41654;BME280;68687;52.030;7.110;2023-07-08T02:48:35;100989.91;;;17.66;60.76
41654;BME280;68687;52.030;7.110;2023-07-08T02:51:02;100998.28;;;17.64;60.70
41654;BME280;68687;52.030;7.110;2023-07-08T02:53:28;100987.78;;;17.74;60.22
41654;BME280;68687;52.030;7.110;2023-07-08T02:55:53;100993.69;;;17.65;60.70
41654;BME280;68687;52.030;7.110;2023-07-08T02:58:18;100989.53;;;17.62;61.21
41654;BME280;68687;52.030;7.110;2023-07-08T03:00:44;100992.81;;;17.71;60.51
41654;BME280;68687;52.030;7.110;2023-07-08T03:03:09;100982.72;;;17.78;59.90
41654;BME280;68687;52.030;7.110;2023-07-08T03:05:37;100980.28;;;17.70;60.38
41654;BME280;68687;52.030;7.110;2023-07-08T03:08:03;100986.50;;;17.77;59.92
41654;BME280;68687;52.030;7.110;2023-07-08T03:10:28;100975.91;;;17.69;59.94
41654;BME280;68687;52.030;7.110;2023-07-08T03:12:53;100982.78;;;17.71;59.63
41654;BME280;68687;52.030;7.110;2023-07-08T03:15:19;100982.31;;;17.81;59.76
41654;BME280;68687;52.030;7.110;2023-07-08T03:17:44;100980.19;;;17.83;59.34
41654;BME280;68687;52.030;7.110;2023-07-08T03:20:10;100978.09;;;17.85;59.39
41654;BME280;68687;52.030;7.110;2023-07-08T03:22:37;100973.50;;;17.85;59.15
41654;BME280;68687;52.030;7.110;2023-07-08T03:25:02;100971.00;;;17.84;59.34
41654;BME280;68687;52.030;7.110;2023-07-08T03:27:37;100971.00;;;17.84;59.20
41654;BME280;68687;52.030;7.110;2023-07-08T03:30:06;100968.06;;;17.85;59.26
41654;BME280;68687;52.030;7.110;2023-07-08T03:32:31;100963.72;;;17.78;59.59
41654;BME280;68687;52.030;7.110;2023-07-08T03:34:56;100963.00;;;17.89;59.12
41654;BME280;68687;52.030;7.110;2023-07-08T03:37:21;100964.13;;;17.81;59.10
41654;BME280;68687;52.030;7.110;2023-07-08T03:39:47;100965.88;;;17.94;58.64
41654;BME280;68687;52.030;7.110;2023-07-08T03:42:12;100960.44;;;17.94;58.64
41654;BME280;68687;52.030;7.110;2023-07-08T03:44:37;100977.63;;;17.88;59.31
41654;BME280;68687;52.030;7.110;2023-07-08T03:47:03;100977.19;;;17.91;58.94
41654;BME280;68687;52.030;7.110;2023-07-08T03:49:31;100985.66;;;18.01;58.42
41654;BME280;68687;52.030;7.110;2023-07-08T03:52:02;100988.44;;;17.95;58.50
41654;BME280;68687;52.030;7.110;2023-07-08T03:54:28;100978.03;;;17.91;58.43
41654;BME280;68687;52.030;7.110;2023-07-08T03:56:53;100984.13;;;18.05;58.53
41654;BME280;68687;52.030;7.110;2023-07-08T03:59:19;100984.38;;;18.04;58.59
41654;BME280;68687;52.030;7.110;2023-07-08T04:01:44;100975.00;;;18.00;58.48
41654;BME280;68687;52.030;7.110;2023-07-08T04:04:13;100979.59;;;17.99;59.09
41654;BME280;68687;52.030;7.110;2023-07-08T04:06:39;100976.28;;;17.97;58.91
41654;BME280;68687;52.030;7.110;2023-07-08T04:09:10;100984.75;;;18.07;58.40
41654;BME280;68687;52.030;7.110;2023-07-08T04:11:36;100989.94;;;17.90;59.12
41654;BME280;68687;52.030;7.110;2023-07-08T04:14:01;100997.56;;;18.00;58.89
41654;BME280;68687;52.030;7.110;2023-07-08T04:16:41;100996.06;;;18.04;58.63
41654;BME280;68687;52.030;7.110;2023-07-08T04:19:14;100997.00;;;18.16;58.05
41654;BME280;68687;52.030;7.110;2023-07-08T04:21:44;101005.22;;;18.10;58.72
41654;BME280;68687;52.030;7.110;2023-07-08T04:24:14;100997.31;;;18.08;58.75
41654;BME280;68687;52.030;7.110;2023-07-08T04:26:47;101002.06;;;18.31;58.04
41654;BME280;68687;52.030;7.110;2023-07-08T04:29:21;101000.03;;;18.27;58.07
41654;BME280;68687;52.030;7.110;2023-07-08T04:31:47;100998.59;;;18.24;58.08
41654;BME280;68687;52.030;7.110;2023-07-08T04:34:13;100995.66;;;18.26;57.98
41654;BME280;68687;52.030;7.110;2023-07-08T04:36:38;101001.19;;;18.37;57.92
41654;BME280;68687;52.030;7.110;2023-07-08T04:39:05;100997.00;;;18.35;57.98
41654;BME280;68687;52.030;7.110;2023-07-08T04:41:31;101007.00;;;18.41;57.72
41654;BME280;68687;52.030;7.110;2023-07-08T04:43:57;101003.38;;;18.47;57.63
41654;BME280;68687;52.030;7.110;2023-07-08T04:46:31;101007.59;;;18.43;57.78
41654;BME280;68687;52.030;7.110;2023-07-08T04:49:07;101011.56;;;18.65;57.03
41654;BME280;68687;52.030;7.110;2023-07-08T04:51:34;101015.97;;;18.60;57.74
41654;BME280;68687;52.030;7.110;2023-07-08T04:54:06;101007.56;;;18.68;57.12
41654;BME280;68687;52.030;7.110;2023-07-08T04:56:39;101009.94;;;18.58;57.58
41654;BME280;68687;52.030;7.110;2023-07-08T04:59:07;101006.38;;;18.57;57.06
41654;BME280;68687;52.030;7.110;2023-07-08T05:01:32;101010.28;;;18.61;57.23
41654;BME280;68687;52.030;7.110;2023-07-08T05:03:59;100993.63;;;18.58;57.36
41654;BME280;68687;52.030;7.110;2023-07-08T05:06:24;101009.91;;;18.64;57.36
41654;BME280;68687;52.030;7.110;2023-07-08T05:08:50;101000.34;;;18.55;57.60
41654;BME280;68687;52.030;7.110;2023-07-08T05:11:15;100994.09;;;18.73;57.10
41654;BME280;68687;52.030;7.110;2023-07-08T05:13:40;100996.56;;;18.93;57.21
41654;BME280;68687;52.030;7.110;2023-07-08T05:16:06;100992.56;;;18.95;57.11
41654;BME280;68687;52.030;7.110;2023-07-08T05:18:34;100992.97;;;19.10;56.18
41654;BME280;68687;52.030;7.110;2023-07-08T05:20:59;100991.72;;;18.95;56.47
41654;BME280;68687;52.030;7.110;2023-07-08T05:23:24;100995.56;;;19.05;56.34
41654;BME280;68687;52.030;7.110;2023-07-08T05:25:50;100994.56;;;19.18;56.12
41654;BME280;68687;52.030;7.110;2023-07-08T05:28:18;100986.19;;;19.31;55.81
41654;BME280;68687;52.030;7.110;2023-07-08T05:30:52;100997.31;;;19.30;55.92
41654;BME280;68687;52.030;7.110;2023-07-08T05:33:18;100988.91;;;19.31;55.90
41654;BME280;68687;52.030;7.110;2023-07-08T05:35:45;100989.13;;;19.60;55.45
41654;BME280;68687;52.030;7.110;2023-07-08T05:38:10;100986.19;;;19.85;54.66
41654;BME280;68687;52.030;7.110;2023-07-08T05:40:35;100978.25;;;19.95;54.60
41654;BME280;68687;52.030;7.110;2023-07-08T05:43:00;100983.13;;;20.28;54.13
41654;BME280;68687;52.030;7.110;2023-07-08T05:45:26;100986.38;;;20.65;52.57
41654;BME280;68687;52.030;7.110;2023-07-08T05:47:51;100991.72;;;21.00;52.13
41654;BME280;68687;52.030;7.110;2023-07-08T05:50:16;100993.44;;;21.18;51.88
41654;BME280;68687;52.030;7.110;2023-07-08T05:52:45;100996.16;;;21.46;52.66
41654;BME280;68687;52.030;7.110;2023-07-08T05:55:10;100993.19;;;21.48;51.29
41654;BME280;68687;52.030;7.110;2023-07-08T05:57:35;100986.56;;;21.60;50.48
41654;BME280;68687;52.030;7.110;2023-07-08T06:00:09;100992.94;;;21.83;49.31
41654;BME280;68687;52.030;7.110;2023-07-08T06:02:35;100988.56;;;21.65;48.94
41654;BME280;68687;52.030;7.110;2023-07-08T06:05:03;100984.22;;;22.03;48.37
41654;BME280;68687;52.030;7.110;2023-07-08T06:07:29;100978.44;;;21.82;50.04
41654;BME280;68687;52.030;7.110;2023-07-08T06:09:54;100989.59;;;22.31;49.38
41654;BME280;68687;52.030;7.110;2023-07-08T06:12:24;100982.53;;;22.35;49.43
41654;BME280;68687;52.030;7.110;2023-07-08T06:14:49;100979.50;;;22.54;49.70
41654;BME280;68687;52.030;7.110;2023-07-08T06:17:18;100975.81;;;22.65;48.44
41654;BME280;68687;52.030;7.110;2023-07-08T06:19:43;100985.09;;;22.42;48.81
41654;BME280;68687;52.030;7.110;2023-07-08T06:22:18;100979.09;;;22.23;49.78
41654;BME280;68687;52.030;7.110;2023-07-08T06:24:46;100969.81;;;22.46;48.85
41654;BME280;68687;52.030;7.110;2023-07-08T06:27:15;100972.38;;;22.96;47.67
41654;BME280;68687;52.030;7.110;2023-07-08T06:29:44;100982.88;;;23.04;46.46
41654;BME280;68687;52.030;7.110;2023-07-08T06:32:09;100992.28;;;23.13;47.61
41654;BME280;68687;52.030;7.110;2023-07-08T06:34:56;101003.22;;;23.13;47.16
41654;BME280;68687;52.030;7.110;2023-07-08T06:37:22;101010.63;;;23.13;47.04
41654;BME280;68687;52.030;7.110;2023-07-08T06:39:47;100991.50;;;23.45;45.65
41654;BME280;68687;52.030;7.110;2023-07-08T06:42:12;100985.09;;;23.61;46.31
41654;BME280;68687;52.030;7.110;2023-07-08T06:44:43;100993.50;;;24.24;45.38
41654;BME280;68687;52.030;7.110;2023-07-08T06:47:19;100986.13;;;24.29;45.83
41654;BME280;68687;52.030;7.110;2023-07-08T06:49:48;100992.88;;;24.64;46.84
41654;BME280;68687;52.030;7.110;2023-07-08T06:52:13;100979.22;;;24.69;45.12
41654;BME280;68687;52.030;7.110;2023-07-08T06:54:39;100985.00;;;24.83;43.54
41654;BME280;68687;52.030;7.110;2023-07-08T06:57:05;100989.31;;;24.58;45.85
41654;BME280;68687;52.030;7.110;2023-07-08T06:59:30;100981.41;;;24.72;44.57
41654;BME280;68687;52.030;7.110;2023-07-08T07:01:55;100981.22;;;24.94;45.25
41654;BME280;68687;52.030;7.110;2023-07-08T07:04:21;100983.25;;;25.24;44.68
41654;BME280;68687;52.030;7.110;2023-07-08T07:06:46;100970.59;;;25.33;44.03
41654;BME280;68687;52.030;7.110;2023-07-08T07:09:12;100988.22;;;25.63;42.84
41654;BME280;68687;52.030;7.110;2023-07-08T07:11:37;100989.59;;;25.91;43.30
41654;BME280;68687;52.030;7.110;2023-07-08T07:14:02;100982.66;;;26.24;42.19
41654;BME280;68687;52.030;7.110;2023-07-08T07:16:30;100983.75;;;26.33;41.06
41654;BME280;68687;52.030;7.110;2023-07-08T07:18:56;100978.44;;;26.62;40.09
41654;BME280;68687;52.030;7.110;2023-07-08T07:21:24;100971.50;;;26.74;40.17
41654;BME280;68687;52.030;7.110;2023-07-08T07:23:49;100970.44;;;27.20;40.22
41654;BME280;68687;52.030;7.110;2023-07-08T07:26:17;100971.22;;;27.25;40.07
41654;BME280;68687;52.030;7.110;2023-07-08T07:28:52;100974.06;;;27.10;37.47
41654;BME280;68687;52.030;7.110;2023-07-08T07:31:20;100969.47;;;27.39;39.00
41654;BME280;68687;52.030;7.110;2023-07-08T07:33:45;100967.22;;;27.47;37.61
41654;BME280;68687;52.030;7.110;2023-07-08T07:36:11;100968.75;;;27.58;37.38
41654;BME280;68687;52.030;7.110;2023-07-08T07:38:36;100966.50;;;27.70;37.15
41654;BME280;68687;52.030;7.110;2023-07-08T07:41:01;100973.69;;;27.61;36.55
41654;BME280;68687;52.030;7.110;2023-07-08T07:43:31;100978.53;;;27.45;35.95
41654;BME280;68687;52.030;7.110;2023-07-08T07:45:56;100966.72;;;27.39;35.42
41654;BME280;68687;52.030;7.110;2023-07-08T07:48:21;100972.34;;;27.58;36.57
41654;BME280;68687;52.030;7.110;2023-07-08T07:50:50;100976.19;;;27.96;36.08
41654;BME280;68687;52.030;7.110;2023-07-08T07:53:19;100967.56;;;28.03;34.05
41654;BME280;68687;52.030;7.110;2023-07-08T07:55:44;100976.25;;;27.86;34.41
41654;BME280;68687;52.030;7.110;2023-07-08T07:58:10;100973.47;;;28.15;35.23
41654;BME280;68687;52.030;7.110;2023-07-08T08:00:45;100968.81;;;28.63;33.58
41654;BME280;68687;52.030;7.110;2023-07-08T08:03:20;100967.38;;;28.90;34.21
41654;BME280;68687;52.030;7.110;2023-07-08T08:05:45;100980.81;;;28.97;32.32
41654;BME280;68687;52.030;7.110;2023-07-08T08:08:10;100968.81;;;28.63;33.97
41654;BME280;68687;52.030;7.110;2023-07-08T08:10:36;100974.34;;;28.63;33.77
41654;BME280;68687;52.030;7.110;2023-07-08T08:13:04;100977.56;;;29.13;35.67
41654;BME280;68687;52.030;7.110;2023-07-08T08:15:29;100973.75;;;29.09;32.90
41654;BME280;68687;52.030;7.110;2023-07-08T08:18:01;100980.91;;;29.29;31.23
41654;BME280;68687;52.030;7.110;2023-07-08T08:20:29;100975.00;;;29.36;33.43
41654;BME280;68687;52.030;7.110;2023-07-08T08:22:58;100976.03;;;29.40;33.48
41654;BME280;68687;52.030;7.110;2023-07-08T08:25:24;100979.41;;;29.56;33.20
41654;BME280;68687;52.030;7.110;2023-07-08T08:27:49;100985.28;;;29.68;32.84
41654;BME280;68687;52.030;7.110;2023-07-08T08:30:15;100980.78;;;29.72;31.99
41654;BME280;68687;52.030;7.110;2023-07-08T08:32:41;100981.63;;;30.19;32.23
41654;BME280;68687;52.030;7.110;2023-07-08T08:35:06;100973.03;;;30.61;30.83
41654;BME280;68687;52.030;7.110;2023-07-08T08:37:32;100965.97;;;30.41;31.40
41654;BME280;68687;52.030;7.110;2023-07-08T08:39:57;100967.06;;;30.68;31.96
41654;BME280;68687;52.030;7.110;2023-07-08T08:42:43;100979.78;;;30.55;31.97
41654;BME280;68687;52.030;7.110;2023-07-08T08:45:16;100979.41;;;30.75;31.92
41654;BME280;68687;52.030;7.110;2023-07-08T08:47:44;100989.97;;;30.46;31.44
41654;BME280;68687;52.030;7.110;2023-07-08T08:52:41;100982.91;;;31.17;31.42
41654;BME280;68687;52.030;7.110;2023-07-08T08:55:11;100981.56;;;31.28;31.97
41654;BME280;68687;52.030;7.110;2023-07-08T08:57:43;100980.22;;;31.12;31.56
41654;BME280;68687;52.030;7.110;2023-07-08T09:00:16;100976.84;;;31.74;30.84
41654;BME280;68687;52.030;7.110;2023-07-08T09:02:53;100980.72;;;31.28;30.63
41654;BME280;68687;52.030;7.110;2023-07-08T09:05:22;100981.03;;;31.93;30.82
41654;BME280;68687;52.030;7.110;2023-07-08T09:08:18;100982.22;;;32.01;30.01
41654;BME280;68687;52.030;7.110;2023-07-08T09:10:46;100977.22;;;31.58;29.77
41654;BME280;68687;52.030;7.110;2023-07-08T09:13:21;100983.19;;;31.96;29.60
41654;BME280;68687;52.030;7.110;2023-07-08T09:15:48;100975.13;;;31.86;29.37
41654;BME280;68687;52.030;7.110;2023-07-08T09:18:27;100977.06;;;32.17;28.56
41654;BME280;68687;52.030;7.110;2023-07-08T09:20:55;100981.00;;;32.16;28.80
41654;BME280;68687;52.030;7.110;2023-07-08T09:23:29;100986.88;;;32.54;29.14
41654;BME280;68687;52.030;7.110;2023-07-08T09:26:07;100981.94;;;32.42;28.61
41654;BME280;68687;52.030;7.110;2023-07-08T09:28:41;100990.38;;;32.28;29.34
41654;BME280;68687;52.030;7.110;2023-07-08T09:31:10;100979.69;;;32.13;28.91
41654;BME280;68687;52.030;7.110;2023-07-08T09:33:42;100980.88;;;32.69;28.92
41654;BME280;68687;52.030;7.110;2023-07-08T09:36:17;100979.94;;;32.82;27.78
41654;BME280;68687;52.030;7.110;2023-07-08T09:38:46;100985.06;;;33.15;27.87
41654;BME280;68687;52.030;7.110;2023-07-08T09:41:11;100969.19;;;32.90;27.29
41654;BME280;68687;52.030;7.110;2023-07-08T09:43:38;100972.63;;;33.38;26.84
41654;BME280;68687;52.030;7.110;2023-07-08T09:46:04;100967.25;;;33.16;28.60
41654;BME280;68687;52.030;7.110;2023-07-08T09:48:34;100978.44;;;32.68;26.96
41654;BME280;68687;52.030;7.110;2023-07-08T09:51:01;100964.25;;;32.86;27.05
41654;BME280;68687;52.030;7.110;2023-07-08T09:53:27;100976.72;;;33.15;27.19
41654;BME280;68687;52.030;7.110;2023-07-08T09:55:53;100976.38;;;33.25;26.32
41654;BME280;68687;52.030;7.110;2023-07-08T09:58:29;100988.06;;;32.70;26.54
41654;BME280;68687;52.030;7.110;2023-07-08T10:00:59;100975.97;;;32.66;26.66
41654;BME280;68687;52.030;7.110;2023-07-08T10:03:28;100972.59;;;33.12;26.59
41654;BME280;68687;52.030;7.110;2023-07-08T10:05:57;100982.59;;;32.87;25.94
41654;BME280;68687;52.030;7.110;2023-07-08T10:08:29;100980.59;;;32.79;26.43
41654;BME280;68687;52.030;7.110;2023-07-08T10:11:11;100978.66;;;33.14;27.13
41654;BME280;68687;52.030;7.110;2023-07-08T10:13:45;100977.06;;;33.39;26.19
41654;BME280;68687;52.030;7.110;2023-07-08T10:16:27;100973.25;;;33.61;26.73
41654;BME280;68687;52.030;7.110;2023-07-08T10:18:53;100972.31;;;33.23;26.37
41654;BME280;68687;52.030;7.110;2023-07-08T10:21:34;100972.56;;;33.82;26.26
41654;BME280;68687;52.030;7.110;2023-07-08T10:27:35;100976.22;;;33.30;27.19
41654;BME280;68687;52.030;7.110;2023-07-08T10:30:20;100975.91;;;33.23;25.79
41654;BME280;68687;52.030;7.110;2023-07-08T10:33:06;100965.28;;;33.42;23.94
41654;BME280;68687;52.030;7.110;2023-07-08T10:36:05;100968.50;;;33.79;25.04
41654;BME280;68687;52.030;7.110;2023-07-08T10:47:02;100964.75;;;32.97;26.79
41654;BME280;68687;52.030;7.110;2023-07-08T10:52:38;100969.84;;;33.56;26.29
41654;BME280;68687;52.030;7.110;2023-07-08T10:55:26;100977.75;;;34.09;26.61
41654;BME280;68687;52.030;7.110;2023-07-08T11:14:49;100972.91;;;33.97;24.65
41654;BME280;68687;52.030;7.110;2023-07-08T11:17:31;100965.19;;;33.94;25.36
41654;BME280;68687;52.030;7.110;2023-07-08T11:20:02;100967.06;;;34.20;26.06
41654;BME280;68687;52.030;7.110;2023-07-08T11:22:39;100968.34;;;33.75;26.60
41654;BME280;68687;52.030;7.110;2023-07-08T11:25:17;100963.59;;;33.76;25.23
41654;BME280;68687;52.030;7.110;2023-07-08T11:27:43;100950.16;;;33.78;26.43
41654;BME280;68687;52.030;7.110;2023-07-08T11:32:37;100949.69;;;33.59;25.72
41654;BME280;68687;52.030;7.110;2023-07-08T11:35:05;100947.19;;;34.30;25.80
41654;BME280;68687;52.030;7.110;2023-07-08T11:37:33;100945.97;;;34.10;25.47
41654;BME280;68687;52.030;7.110;2023-07-08T11:40:07;100944.63;;;34.54;27.11
41654;BME280;68687;52.030;7.110;2023-07-08T11:42:41;100946.53;;;34.62;25.73
41654;BME280;68687;52.030;7.110;2023-07-08T11:45:18;100939.44;;;34.44;24.99
41654;BME280;68687;52.030;7.110;2023-07-08T11:47:48;100940.34;;;33.72;25.06
41654;BME280;68687;52.030;7.110;2023-07-08T11:50:32;100931.75;;;34.41;24.25
41654;BME280;68687;52.030;7.110;2023-07-08T11:53:03;100921.44;;;33.95;24.37
41654;BME280;68687;52.030;7.110;2023-07-08T12:06:42;100918.97;;;33.21;26.25
41654;BME280;68687;52.030;7.110;2023-07-08T12:09:28;100912.88;;;32.75;24.74
41654;BME280;68687;52.030;7.110;2023-07-08T12:12:00;100910.41;;;32.65;24.60
41654;BME280;68687;52.030;7.110;2023-07-08T12:14:27;100904.84;;;32.74;25.81
41654;BME280;68687;52.030;7.110;2023-07-08T12:16:53;100911.03;;;32.53;25.24
41654;BME280;68687;52.030;7.110;2023-07-08T12:19:21;100914.84;;;32.83;26.47
41654;BME280;68687;52.030;7.110;2023-07-08T12:21:50;100914.78;;;32.49;25.54
41654;BME280;68687;52.030;7.110;2023-07-08T12:24:22;100905.84;;;32.61;26.08
41654;BME280;68687;52.030;7.110;2023-07-08T12:26:51;100915.00;;;32.87;26.75
41654;BME280;68687;52.030;7.110;2023-07-08T12:29:16;100903.84;;;32.52;26.45
41654;BME280;68687;52.030;7.110;2023-07-08T12:31:42;100902.19;;;32.51;25.23
41654;BME280;68687;52.030;7.110;2023-07-08T12:34:13;100900.41;;;32.47;25.52
41654;BME280;68687;52.030;7.110;2023-07-08T12:36:41;100900.28;;;32.69;26.38
41654;BME280;68687;52.030;7.110;2023-07-08T12:39:13;100901.16;;;32.30;25.16
41654;BME280;68687;52.030;7.110;2023-07-08T12:41:44;100903.50;;;32.37;24.97
41654;BME280;68687;52.030;7.110;2023-07-08T12:44:27;100900.72;;;32.37;25.65
41654;BME280;68687;52.030;7.110;2023-07-08T12:46:54;100905.66;;;32.74;26.12
41654;BME280;68687;52.030;7.110;2023-07-08T12:49:20;100898.97;;;32.67;25.08
41654;BME280;68687;52.030;7.110;2023-07-08T12:51:47;100908.75;;;32.47;25.50
41654;BME280;68687;52.030;7.110;2023-07-08T12:54:13;100902.38;;;32.55;25.39
41654;BME280;68687;52.030;7.110;2023-07-08T12:56:42;100895.81;;;32.51;25.23
41654;BME280;68687;52.030;7.110;2023-07-08T12:59:12;100890.59;;;32.41;25.57
41654;BME280;68687;52.030;7.110;2023-07-08T13:01:39;100896.16;;;32.58;27.09
41654;BME280;68687;52.030;7.110;2023-07-08T13:04:06;100897.97;;;32.63;25.29
41654;BME280;68687;52.030;7.110;2023-07-08T13:06:34;100893.53;;;32.53;24.58
41654;BME280;68687;52.030;7.110;2023-07-08T13:09:32;100897.50;;;32.86;23.85
41654;BME280;68687;52.030;7.110;2023-07-08T13:12:02;100902.25;;;32.60;24.92
41654;BME280;68687;52.030;7.110;2023-07-08T13:14:28;100904.50;;;32.49;24.86
41654;BME280;68687;52.030;7.110;2023-07-08T13:16:54;100906.31;;;32.71;26.58
41654;BME280;68687;52.030;7.110;2023-07-08T13:19:20;100898.59;;;32.51;25.43
41654;BME280;68687;52.030;7.110;2023-07-08T13:21:46;100901.38;;;32.51;25.53
41654;BME280;68687;52.030;7.110;2023-07-08T13:24:12;100888.34;;;32.60;26.22
41654;BME280;68687;52.030;7.110;2023-07-08T13:26:38;100894.88;;;32.73;25.70
41654;BME280;68687;52.030;7.110;2023-07-08T13:29:33;100901.44;;;32.85;26.66
41654;BME280;68687;52.030;7.110;2023-07-08T13:32:05;100893.22;;;32.46;25.82
41654;BME280;68687;52.030;7.110;2023-07-08T13:34:32;100889.59;;;32.45;25.56
41654;BME280;68687;52.030;7.110;2023-07-08T13:36:57;100893.69;;;32.48;24.96
41654;BME280;68687;52.030;7.110;2023-07-08T13:40:05;100885.84;;;32.50;25.10
41654;BME280;68687;52.030;7.110;2023-07-08T13:42:11;100879.81;;;32.48;25.64
41654;BME280;68687;52.030;7.110;2023-07-08T13:44:47;100888.41;;;32.29;26.15
41654;BME280;68687;52.030;7.110;2023-07-08T13:47:42;100882.94;;;32.64;26.47
41654;BME280;68687;52.030;7.110;2023-07-08T13:50:19;100883.09;;;32.67;25.26
41654;BME280;68687;52.030;7.110;2023-07-08T13:52:56;100889.31;;;32.64;25.28
41654;BME280;68687;52.030;7.110;2023-07-08T13:55:22;100890.91;;;32.48;24.86